Time;durP1;ratioP1;P1;durP2;ratioP2;P2;SDS_P1;SDS_P2;PMS_P1;PMS_P2;Temp;Humidity;BMP_temperature;BMP_pressure;BME280_temperature;BME280_humidity;BME280_pressure;Samples;Min_cycle;Max_cycle;Signal;HPM_P1;HPM_P2
2023/04/11 00:00:59;;;;;;;;;;;;;;;9.98;43.15;92719.50;2057705;69;20137;-73
2023/04/11 00:06:53;;;;;;;;;;;;;;;10.24;43.11;92704.28;2057751;69;20061;-79
2023/04/11 00:09:22;;;;;;;;;;;;;;;10.26;43.59;92698.78;2054647;69;20092;-78
2023/04/11 00:11:48;;;;;;;;;;;;;;;10.24;43.40;92681.78;2057850;69;20146;-77
2023/04/11 00:14:14;;;;;;;;;;;;;;;10.39;43.12;92680.56;2057825;69;20082;-73
2023/04/11 00:16:40;;;;;;;;;;;;;;;10.39;43.59;92666.50;2057673;69;20145;-76
2023/04/11 00:19:06;;;;;;;;;;;;;;;10.29;43.25;92663.81;2057603;69;20046;-76
2023/04/11 00:21:31;;;;;;;;;;;;;;;10.28;44.32;92659.53;2057629;69;20048;-76
2023/04/11 00:23:57;;;;;;;;;;;;;;;10.23;45.13;92659.88;2057646;69;20453;-76
2023/04/11 00:26:22;;;;;;;;;;;;;;;10.33;44.40;92664.06;2057553;69;20521;-76
2023/04/11 00:32:16;;;;;;;;;;;;;;;10.32;44.20;92659.03;2059073;69;20129;-76
2023/04/11 00:34:41;;;;;;;;;;;;;;;10.15;43.44;92657.28;2054864;69;20054;-75
2023/04/11 00:40:35;;;;;;;;;;;;;;;9.82;46.01;92666.53;2058182;69;20045;-76
2023/04/11 00:43:00;;;;;;;;;;;;;;;9.82;46.70;92671.41;2057993;69;20054;-76
2023/04/11 00:45:26;;;;;;;;;;;;;;;9.92;45.38;92674.84;2054697;69;20510;-76
2023/04/11 00:47:52;;;;;;;;;;;;;;;10.07;45.01;92662.41;2054884;69;20097;-75
2023/04/11 00:50:20;;;;;;;;;;;;;;;10.12;43.39;92662.03;2058292;69;20183;-75
2023/04/11 00:52:48;;;;;;;;;;;;;;;10.19;43.91;92654.72;2058085;69;20046;-75
2023/04/11 00:58:43;;;;;;;;;;;;;;;10.02;44.19;92633.28;2058453;69;20138;-78
2023/04/11 01:01:09;;;;;;;;;;;;;;;9.96;44.39;92621.69;2058244;69;20141;-76
2023/04/11 01:03:38;;;;;;;;;;;;;;;10.07;44.09;92608.97;2054993;69;20553;-76
2023/04/11 01:06:05;;;;;;;;;;;;;;;10.04;45.79;92607.38;2055099;69;20043;-77
2023/04/11 01:08:31;;;;;;;;;;;;;;;10.07;44.78;92606.88;2052153;69;20482;-78
2023/04/11 01:10:57;;;;;;;;;;;;;;;10.07;45.14;92612.50;2058536;69;20574;-76
2023/04/11 01:13:23;;;;;;;;;;;;;;;10.04;46.35;92619.38;2058122;69;20149;-76
2023/04/11 01:15:48;;;;;;;;;;;;;;;9.95;45.96;92619.47;2054837;69;20252;-79
2023/04/11 01:18:14;;;;;;;;;;;;;;;10.00;45.55;92607.88;2058417;69;20056;-78
2023/04/11 01:20:39;;;;;;;;;;;;;;;10.07;45.70;92609.69;2055048;69;20148;-79
2023/04/11 01:26:34;;;;;;;;;;;;;;;10.06;45.56;92596.97;2058419;69;20053;-77
2023/04/11 01:29:01;;;;;;;;;;;;;;;10.08;43.91;92585.88;2055010;69;20061;-75
2023/04/11 01:34:56;;;;;;;;;;;;;;;9.98;44.55;92593.66;2058155;69;20449;-77
2023/04/11 01:37:23;;;;;;;;;;;;;;;10.07;43.97;92597.72;2058301;69;20101;-75
2023/04/11 01:39:49;;;;;;;;;;;;;;;10.14;43.35;92605.19;2052435;69;20482;-78
2023/04/11 01:42:15;;;;;;;;;;;;;;;10.12;43.09;92619.13;2058412;69;20058;-78
2023/04/11 01:48:09;;;;;;;;;;;;;;;10.13;43.73;92607.28;2058774;69;20480;-79
2023/04/11 01:54:03;;;;;;;;;;;;;;;10.12;42.82;92613.50;2058350;69;20128;-78
2023/04/11 01:56:30;;;;;;;;;;;;;;;9.42;45.30;92619.72;2058674;69;20058;-78
2023/04/11 01:58:57;;;;;;;;;;;;;;;9.60;45.33;92608.91;2055122;69;20056;-79
2023/04/11 02:01:30;;;;;;;;;;;;;;;9.86;44.02;92615.44;2058209;69;20058;-80
2023/04/11 02:03:57;;;;;;;;;;;;;;;9.87;45.30;92614.09;2058138;69;20050;-77
2023/04/11 02:06:26;;;;;;;;;;;;;;;10.01;45.29;92623.41;2058319;69;20060;-78
2023/04/11 02:08:51;;;;;;;;;;;;;;;9.88;45.41;92609.94;2055186;69;20053;-77
2023/04/11 02:11:20;;;;;;;;;;;;;;;9.89;45.19;92614.19;2055556;69;20077;-79
2023/04/11 02:13:53;;;;;;;;;;;;;;;9.91;45.28;92603.81;2055555;69;20177;-78
2023/04/11 02:16:28;;;;;;;;;;;;;;;9.91;45.38;92592.56;2058586;69;20054;-76
2023/04/11 02:18:57;;;;;;;;;;;;;;;9.75;45.47;92580.31;2059514;69;20104;-79
2023/04/11 02:21:23;;;;;;;;;;;;;;;9.96;44.88;92578.75;2060165;69;20062;-78
2023/04/11 02:23:49;;;;;;;;;;;;;;;9.80;46.34;92572.88;2060632;69;20579;-79
2023/04/11 02:26:19;;;;;;;;;;;;;;;9.51;46.07;92557.06;2062266;69;20058;-78
2023/04/11 02:28:54;;;;;;;;;;;;;;;9.42;46.18;92555.09;2061534;69;20080;-79
2023/04/11 02:31:21;;;;;;;;;;;;;;;9.49;46.43;92548.53;2060429;69;20053;-79
2023/04/11 02:33:46;;;;;;;;;;;;;;;9.65;46.48;92540.34;2059563;69;20042;-78
2023/04/11 02:36:17;;;;;;;;;;;;;;;9.68;45.30;92556.72;2055644;69;20081;-79
2023/04/11 02:38:43;;;;;;;;;;;;;;;9.13;45.59;92575.06;2059186;69;20046;-81
2023/04/11 02:41:11;;;;;;;;;;;;;;;9.22;47.34;92582.66;2055713;69;20050;-80
2023/04/11 02:47:05;;;;;;;;;;;;;;;9.32;46.89;92546.03;2058767;69;20152;-77
2023/04/11 02:49:33;;;;;;;;;;;;;;;9.31;46.74;92542.50;2058377;69;20473;-79
2023/04/11 02:52:00;;;;;;;;;;;;;;;9.53;45.98;92550.84;2055425;69;20082;-79
2023/04/11 02:54:26;;;;;;;;;;;;;;;9.66;44.70;92562.22;2055043;69;20043;-79
2023/04/11 02:56:54;;;;;;;;;;;;;;;9.64;45.07;92567.00;2058637;69;20145;-78
2023/04/11 02:59:20;;;;;;;;;;;;;;;9.73;45.56;92574.59;2055190;69;20061;-79
2023/04/11 03:01:46;;;;;;;;;;;;;;;9.72;46.35;92578.75;2055111;69;20082;-78
2023/04/11 03:04:12;;;;;;;;;;;;;;;9.68;46.30;92578.50;2055143;69;20058;-79
2023/04/11 03:06:50;;;;;;;;;;;;;;;9.67;45.71;92569.31;2054639;69;20061;-78
2023/04/11 03:09:19;;;;;;;;;;;;;;;9.67;45.90;92546.84;2058354;69;20145;-78
2023/04/11 03:11:46;;;;;;;;;;;;;;;9.80;45.59;92539.88;2054770;69;20054;-79
2023/04/11 03:14:15;;;;;;;;;;;;;;;9.77;44.69;92523.50;2054959;69;20061;-77
2023/04/11 03:16:40;;;;;;;;;;;;;;;9.62;45.02;92533.13;2058197;69;20058;-79
2023/04/11 03:22:37;;;;;;;;;;;;;;;9.50;45.90;92554.88;2058807;69;20152;-78
2023/04/11 03:25:07;;;;;;;;;;;;;;;9.53;47.45;92554.41;2058481;69;20061;-79
2023/04/11 03:27:34;;;;;;;;;;;;;;;9.56;46.84;92544.00;2058754;69;20050;-79
2023/04/11 03:30:02;;;;;;;;;;;;;;;9.56;43.66;92527.88;2054990;69;20168;-78
2023/04/11 03:32:40;;;;;;;;;;;;;;;9.48;45.51;92515.41;2055134;69;20054;-78
2023/04/11 03:35:06;;;;;;;;;;;;;;;9.58;45.96;92513.97;2055058;69;20050;-79
2023/04/11 03:37:37;;;;;;;;;;;;;;;9.65;45.20;92509.44;2055058;69;20082;-78
2023/04/11 03:40:07;;;;;;;;;;;;;;;9.74;44.52;92502.97;2054207;69;20062;-78
2023/04/11 03:42:36;;;;;;;;;;;;;;;9.64;44.49;92505.88;2054606;69;20145;-77
2023/04/11 03:45:05;;;;;;;;;;;;;;;9.50;46.30;92507.09;2054466;69;20077;-76
2023/04/11 03:47:31;;;;;;;;;;;;;;;9.75;45.66;92512.13;2057921;69;20508;-75
2023/04/11 03:49:57;;;;;;;;;;;;;;;9.79;45.75;92520.81;2054761;69;20061;-76
2023/04/11 03:55:52;;;;;;;;;;;;;;;9.68;44.99;92503.31;2057983;69;20096;-78
2023/04/11 03:58:21;;;;;;;;;;;;;;;9.39;46.47;92517.72;2054555;69;20057;-78
2023/04/11 04:00:46;;;;;;;;;;;;;;;9.49;47.36;92505.66;2054538;69;20093;-72
2023/04/11 04:03:12;;;;;;;;;;;;;;;9.71;46.29;92498.53;2054624;69;20049;-79
2023/04/11 04:05:40;;;;;;;;;;;;;;;9.62;45.67;92491.72;2051869;69;20124;-77
2023/04/11 04:08:06;;;;;;;;;;;;;;;9.11;47.03;92513.84;2052283;69;20052;-76
2023/04/11 04:10:45;;;;;;;;;;;;;;;9.60;47.78;92521.78;2058347;69;20061;-73
2023/04/11 04:13:12;;;;;;;;;;;;;;;9.59;47.73;92506.25;2055059;69;20070;-78
2023/04/11 04:15:41;;;;;;;;;;;;;;;9.61;47.39;92500.75;2054966;69;20046;-74
2023/04/11 04:18:09;;;;;;;;;;;;;;;9.58;46.65;92499.91;2056067;69;20082;-74
2023/04/11 04:20:47;;;;;;;;;;;;;;;9.59;48.96;92476.06;2055413;69;20145;-76
2023/04/11 04:23:16;;;;;;;;;;;;;;;9.69;46.26;92439.41;2055419;69;20066;-75
2023/04/11 04:26:05;;;;;;;;;;;;;;;9.59;46.75;92430.38;2053048;69;20129;-77
2023/04/11 04:28:32;;;;;;;;;;;;;;;9.05;48.25;92414.47;2055094;69;20056;-75
2023/04/11 04:31:01;;;;;;;;;;;;;;;9.41;48.30;92427.94;2054995;69;20050;-75
2023/04/11 04:33:32;;;;;;;;;;;;;;;9.40;48.02;92431.38;2055134;69;20141;-76
2023/04/11 04:36:00;;;;;;;;;;;;;;;9.54;47.57;92431.47;2054899;69;20070;-78
2023/04/11 04:38:29;;;;;;;;;;;;;;;9.52;46.73;92426.47;2055024;69;20149;-78
2023/04/11 04:44:33;;;;;;;;;;;;;;;9.42;46.79;92420.22;2058258;69;20497;-72
2023/04/11 04:47:03;;;;;;;;;;;;;;;9.53;46.41;92413.91;2055076;69;20465;-72
2023/04/11 04:49:29;;;;;;;;;;;;;;;9.60;46.45;92417.78;2055055;69;20062;-79
2023/04/11 04:51:54;;;;;;;;;;;;;;;9.53;46.74;92430.00;2054995;69;20407;-78
2023/04/11 04:54:20;;;;;;;;;;;;;;;8.93;46.90;92450.22;2055021;69;20086;-78
2023/04/11 04:56:47;;;;;;;;;;;;;;;8.94;46.53;92463.66;2054962;69;20474;-73
2023/04/11 04:59:15;;;;;;;;;;;;;;;9.00;46.52;92466.84;2054854;69;20453;-76
2023/04/11 05:01:43;;;;;;;;;;;;;;;8.92;46.53;92471.94;2058088;69;20124;-73
2023/04/11 05:04:09;;;;;;;;;;;;;;;8.97;46.12;92479.28;2055048;69;20074;-73
2023/04/11 05:06:54;;;;;;;;;;;;;;;9.05;45.86;92491.00;2058031;69;20083;-73
2023/04/11 05:09:20;;;;;;;;;;;;;;;9.32;46.99;92501.81;2055026;69;20402;-73
2023/04/11 05:11:49;;;;;;;;;;;;;;;9.40;46.40;92479.84;2054998;69;20069;-74
2023/04/11 05:14:15;;;;;;;;;;;;;;;9.37;46.65;92474.72;2054787;69;20153;-73
2023/04/11 05:16:41;;;;;;;;;;;;;;;9.47;46.75;92469.72;2054924;69;20493;-73
2023/04/11 05:22:36;;;;;;;;;;;;;;;9.76;45.60;92448.94;2058132;69;20489;-75
2023/04/11 05:25:02;;;;;;;;;;;;;;;9.76;46.86;92443.31;2054750;69;20070;-74
2023/04/11 05:27:28;;;;;;;;;;;;;;;9.72;46.98;92440.28;2054846;69;20084;-74
2023/04/11 05:29:53;;;;;;;;;;;;;;;9.69;44.67;92436.59;2052001;69;20474;-73
2023/04/11 05:32:19;;;;;;;;;;;;;;;9.40;46.68;92448.22;2055038;69;20046;-74
2023/04/11 05:34:52;;;;;;;;;;;;;;;9.52;46.14;92453.81;2051762;69;20555;-74
2023/04/11 05:37:23;;;;;;;;;;;;;;;9.75;46.37;92448.19;2051765;69;20056;-73
2023/04/11 05:43:18;;;;;;;;;;;;;;;9.40;46.40;92445.41;2038912;70;20514;-78
2023/04/11 05:45:46;;;;;;;;;;;;;;;8.97;48.10;92448.38;2051723;70;20060;-77
2023/04/11 05:48:15;;;;;;;;;;;;;;;9.39;48.78;92432.69;2051762;70;20056;-76
2023/04/11 05:50:41;;;;;;;;;;;;;;;9.65;48.54;92431.47;2051795;69;20060;-75
2023/04/11 05:53:06;;;;;;;;;;;;;;;9.31;49.12;92435.03;2038977;70;20054;-76
2023/04/11 05:55:32;;;;;;;;;;;;;;;9.58;47.92;92431.72;2038937;70;20059;-79
2023/04/11 05:57:57;;;;;;;;;;;;;;;9.74;47.60;92420.72;2038924;69;20048;-79
2023/04/11 06:00:24;;;;;;;;;;;;;;;9.26;48.06;92414.38;2038815;69;20064;-79
2023/04/11 06:02:50;;;;;;;;;;;;;;;9.21;48.62;92423.91;2038911;70;20504;-77
2023/04/11 06:05:16;;;;;;;;;;;;;;;9.56;47.86;92431.59;2039208;70;20140;-77
2023/04/11 06:11:10;;;;;;;;;;;;;;;9.82;46.92;92424.72;2038868;70;20051;-77
2023/04/11 06:13:36;;;;;;;;;;;;;;;9.96;46.68;92426.91;2038892;69;20119;-77
2023/04/11 06:16:01;;;;;;;;;;;;;;;10.13;46.78;92427.25;2038795;70;20055;-76
2023/04/11 06:18:27;;;;;;;;;;;;;;;10.17;47.20;92430.28;2038841;70;20058;-76
2023/04/11 06:20:52;;;;;;;;;;;;;;;9.96;46.50;92430.47;2038904;70;20117;-76
2023/04/11 06:23:18;;;;;;;;;;;;;;;9.51;45.77;92427.81;2038552;70;20072;-78
2023/04/11 06:25:43;;;;;;;;;;;;;;;9.76;45.44;92427.19;2038791;69;20049;-78
2023/04/11 06:28:09;;;;;;;;;;;;;;;9.62;46.59;92443.19;2038823;70;20050;-77
2023/04/11 06:30:34;;;;;;;;;;;;;;;9.42;47.16;92448.31;2038528;70;20091;-74
2023/04/11 06:33:00;;;;;;;;;;;;;;;9.50;46.69;92436.84;2038968;70;20477;-74
2023/04/11 06:35:25;;;;;;;;;;;;;;;9.91;45.87;92449.16;2051302;69;20046;-78
2023/04/11 06:37:51;;;;;;;;;;;;;;;10.22;46.15;92450.19;2058174;69;20082;-77
2023/04/11 06:40:18;;;;;;;;;;;;;;;10.29;45.55;92455.59;2054808;69;20050;-76
2023/04/11 06:42:44;;;;;;;;;;;;;;;10.25;44.72;92451.81;2058166;69;20057;-77
2023/04/11 06:45:10;;;;;;;;;;;;;;;10.25;43.93;92455.38;2057963;69;20046;-77
2023/04/11 06:47:36;;;;;;;;;;;;;;;10.29;43.87;92449.25;2058173;69;20057;-78
2023/04/11 06:50:01;;;;;;;;;;;;;;;10.43;44.31;92433.91;2054496;69;20046;-78
2023/04/11 06:52:27;;;;;;;;;;;;;;;10.37;44.23;92402.63;2058071;69;20460;-79
2023/04/11 06:54:52;;;;;;;;;;;;;;;10.36;44.75;92418.03;2058218;69;20116;-76
2023/04/11 06:57:18;;;;;;;;;;;;;;;10.80;44.91;92413.44;2058280;69;20203;-79
2023/04/11 06:59:43;;;;;;;;;;;;;;;10.88;46.02;92413.88;2058002;69;20482;-77
2023/04/11 07:02:08;;;;;;;;;;;;;;;11.07;46.40;92412.06;2058101;69;20050;-74
2023/04/11 07:04:34;;;;;;;;;;;;;;;10.15;45.75;92424.53;2054803;69;20478;-77
2023/04/11 07:07:00;;;;;;;;;;;;;;;10.53;45.35;92419.66;2054893;69;20446;-80
2023/04/11 07:09:25;;;;;;;;;;;;;;;10.90;44.90;92419.63;2058117;69;20601;-80
2023/04/11 07:11:51;;;;;;;;;;;;;;;11.19;45.21;92424.72;2058086;69;20061;-78
2023/04/11 07:14:17;;;;;;;;;;;;;;;11.28;45.39;92405.44;2058090;69;20050;-79
2023/04/11 07:16:42;;;;;;;;;;;;;;;11.43;43.49;92410.47;2057942;69;20046;-79
2023/04/11 07:19:08;;;;;;;;;;;;;;;11.24;40.89;92411.59;2058168;69;20070;-81
2023/04/11 07:21:37;;;;;;;;;;;;;;;11.03;40.97;92401.28;2058412;69;20421;-75
2023/04/11 07:24:04;;;;;;;;;;;;;;;11.67;41.11;92399.72;2058093;69;20166;-73
2023/04/11 07:26:31;;;;;;;;;;;;;;;11.83;42.14;92408.34;2054861;69;20054;-79
2023/04/11 07:28:56;;;;;;;;;;;;;;;11.54;40.65;92409.63;2058074;69;20050;-71
2023/04/11 07:31:22;;;;;;;;;;;;;;;11.95;40.02;92408.94;2057871;69;20072;-73
2023/04/11 07:33:47;;;;;;;;;;;;;;;12.09;40.73;92414.56;2058096;69;20145;-70
2023/04/11 07:36:12;;;;;;;;;;;;;;;12.19;41.75;92417.91;2058033;69;20095;-71
2023/04/11 07:38:38;;;;;;;;;;;;;;;12.18;42.11;92416.44;2057953;69;20076;-72
2023/04/11 07:41:04;;;;;;;;;;;;;;;11.92;42.00;92407.38;2058232;69;20057;-73
2023/04/11 07:46:58;;;;;;;;;;;;;;;11.92;40.11;92396.09;2058229;69;20421;-73
2023/04/11 07:49:23;;;;;;;;;;;;;;;12.36;39.28;92408.88;2061835;69;20054;-74
2023/04/11 07:51:49;;;;;;;;;;;;;;;12.40;38.80;92417.56;2062421;69;20502;-75
2023/04/11 07:54:14;;;;;;;;;;;;;;;12.48;38.79;92422.16;2060987;69;20089;-79
2023/04/11 07:56:40;;;;;;;;;;;;;;;12.64;39.23;92425.75;2059033;69;20417;-78
2023/04/11 07:59:05;;;;;;;;;;;;;;;12.25;39.00;92418.22;2058371;69;20424;-79
2023/04/11 08:01:30;;;;;;;;;;;;;;;12.58;39.84;92431.84;2057961;69;20054;-75
2023/04/11 08:03:56;;;;;;;;;;;;;;;12.50;41.51;92425.06;2058473;69;20429;-78
2023/04/11 08:06:22;;;;;;;;;;;;;;;12.78;41.03;92432.09;2058083;69;20054;-78
2023/04/11 08:08:48;;;;;;;;;;;;;;;12.72;39.33;92420.50;2058319;69;20058;-78
2023/04/11 08:11:14;;;;;;;;;;;;;;;12.20;40.45;92422.19;2057921;69;20117;-75
2023/04/11 08:13:40;;;;;;;;;;;;;;;12.13;39.73;92429.63;2058194;69;20062;-78
2023/04/11 08:16:08;;;;;;;;;;;;;;;12.58;39.99;92420.53;2057784;69;20399;-78
2023/04/11 08:18:35;;;;;;;;;;;;;;;12.77;39.28;92424.97;2057869;69;20058;-79
2023/04/11 08:21:01;;;;;;;;;;;;;;;12.19;40.28;92432.75;2057893;69;20050;-78
2023/04/11 08:23:28;;;;;;;;;;;;;;;12.69;40.41;92431.00;2054608;69;20137;-78
2023/04/11 08:25:54;;;;;;;;;;;;;;;12.49;40.03;92434.91;2058066;69;20056;-78
2023/04/11 08:28:20;;;;;;;;;;;;;;;12.37;40.80;92452.72;2057911;69;20050;-81
2023/04/11 08:30:45;;;;;;;;;;;;;;;12.39;40.07;92458.44;2057729;69;20442;-81
2023/04/11 08:33:11;;;;;;;;;;;;;;;12.67;39.06;92461.22;2057904;69;20053;-79
2023/04/11 08:35:36;;;;;;;;;;;;;;;12.90;39.01;92468.69;2057755;69;20061;-81
2023/04/11 08:38:02;;;;;;;;;;;;;;;12.31;38.96;92466.50;2054563;69;20483;-80
2023/04/11 08:40:27;;;;;;;;;;;;;;;12.28;38.52;92467.78;2054417;69;20086;-78
2023/04/11 08:42:59;;;;;;;;;;;;;;;12.75;37.81;92477.84;2057775;69;20146;-76
2023/04/11 08:45:25;;;;;;;;;;;;;;;12.77;39.09;92483.56;2057581;69;20062;-77
2023/04/11 08:47:50;;;;;;;;;;;;;;;13.05;40.84;92496.25;2057798;69;20050;-78
2023/04/11 08:50:16;;;;;;;;;;;;;;;12.91;41.46;92504.03;2057769;69;20587;-78
2023/04/11 08:52:42;;;;;;;;;;;;;;;13.08;43.25;92509.13;2057890;69;20093;-77
2023/04/11 08:55:08;;;;;;;;;;;;;;;13.20;41.27;92506.88;2058502;69;20062;-76
2023/04/11 08:57:36;;;;;;;;;;;;;;;13.07;45.37;92504.13;2054989;69;20432;-77
2023/04/11 09:00:17;;;;;;;;;;;;;;;13.03;46.24;92498.25;2055024;69;20469;-77
2023/04/11 09:02:59;;;;;;;;;;;;;;;13.28;45.43;92491.69;2058272;69;20145;-77
2023/04/11 09:05:26;;;;;;;;;;;;;;;13.37;49.85;92505.56;2058347;69;20497;-77
2023/04/11 09:07:52;;;;;;;;;;;;;;;13.55;49.36;92517.00;2058305;69;20142;-77
2023/04/11 09:10:18;;;;;;;;;;;;;;;13.67;48.80;92525.34;2058322;69;20046;-77
2023/04/11 09:12:44;;;;;;;;;;;;;;;13.35;50.06;92518.91;2058116;69;20128;-75
2023/04/11 09:15:17;;;;;;;;;;;;;;;13.48;50.51;92520.94;2058017;69;20066;-76
2023/04/11 09:17:42;;;;;;;;;;;;;;;13.40;48.99;92534.69;2058314;69;20050;-77
2023/04/11 09:20:18;;;;;;;;;;;;;;;13.50;50.11;92528.78;2058267;69;20062;-78
2023/04/11 09:22:44;;;;;;;;;;;;;;;13.33;52.49;92538.56;2058303;69;20474;-75
2023/04/11 09:25:09;;;;;;;;;;;;;;;13.21;51.34;92528.13;2054916;69;20050;-75
2023/04/11 09:27:35;;;;;;;;;;;;;;;13.56;50.96;92517.75;2058210;69;20052;-75
2023/04/11 09:30:01;;;;;;;;;;;;;;;13.56;51.24;92520.56;2058337;69;20151;-76
2023/04/11 09:32:33;;;;;;;;;;;;;;;12.97;52.08;92524.13;2058282;69;20054;-76
2023/04/11 09:35:14;;;;;;;;;;;;;;;13.35;50.18;92533.03;2058185;69;20474;-73
2023/04/11 09:37:53;;;;;;;;;;;;;;;13.37;50.69;92535.94;2058319;69;20054;-73
2023/04/11 09:40:20;;;;;;;;;;;;;;;13.67;50.31;92522.53;2058474;69;20441;-73
2023/04/11 09:42:47;;;;;;;;;;;;;;;13.72;49.21;92527.00;2059762;69;20054;-77
2023/04/11 09:45:19;;;;;;;;;;;;;;;13.28;52.78;92523.50;2058544;69;20503;-76
2023/04/11 09:47:46;;;;;;;;;;;;;;;13.32;51.74;92520.16;2058579;69;20046;-78
2023/04/11 09:50:12;;;;;;;;;;;;;;;12.77;53.78;92523.13;2058236;69;20046;-77
2023/04/11 09:52:41;;;;;;;;;;;;;;;13.11;53.25;92516.34;2058490;69;20057;-76
2023/04/11 09:55:08;;;;;;;;;;;;;;;13.39;51.65;92511.34;2058374;69;20069;-75
2023/04/11 09:57:35;;;;;;;;;;;;;;;13.92;50.45;92515.88;2055050;69;20089;-78
2023/04/11 10:00:12;;;;;;;;;;;;;;;13.80;51.27;92513.22;2054970;69;20490;-77
2023/04/11 10:02:40;;;;;;;;;;;;;;;13.93;52.01;92506.03;2058396;69;20054;-77
2023/04/11 10:05:07;;;;;;;;;;;;;;;14.06;52.71;92515.78;2058128;69;20061;-76
2023/04/11 10:07:34;;;;;;;;;;;;;;;14.87;52.59;92505.16;2058350;69;20065;-78
2023/04/11 10:09:59;;;;;;;;;;;;;;;13.70;52.48;92501.47;2058334;69;20527;-77
2023/04/11 10:12:32;;;;;;;;;;;;;;;14.33;51.80;92495.75;2058216;69;20141;-77
2023/04/11 10:15:04;;;;;;;;;;;;;;;14.83;50.20;92490.09;2057848;69;20389;-77
2023/04/11 10:17:30;;;;;;;;;;;;;;;15.70;46.61;92485.09;2058169;69;20186;-77
2023/04/11 10:19:56;;;;;;;;;;;;;;;15.64;45.98;92476.38;2054824;69;20185;-77
2023/04/11 10:22:40;;;;;;;;;;;;;;;14.60;46.98;92483.50;2058188;69;20156;-78
2023/04/11 10:25:24;;;;;;;;;;;;;;;14.26;49.09;92477.06;2058124;69;20050;-77
2023/04/11 10:27:55;;;;;;;;;;;;;;;14.35;48.27;92467.53;2058156;69;20572;-77
2023/04/11 10:30:39;;;;;;;;;;;;;;;14.16;48.26;92468.88;2054775;69;20051;-78
2023/04/11 10:33:09;;;;;;;;;;;;;;;14.94;46.92;92469.31;2058094;69;20050;-76
2023/04/11 10:35:35;;;;;;;;;;;;;;;14.72;46.94;92466.28;2058143;69;20050;-77
2023/04/11 10:38:00;;;;;;;;;;;;;;;16.10;45.90;92468.16;2058222;69;20050;-77
2023/04/11 10:40:26;;;;;;;;;;;;;;;15.33;45.88;92463.09;2058023;69;20146;-78
2023/04/11 10:42:51;;;;;;;;;;;;;;;15.80;45.49;92455.66;2054818;69;20408;-75
2023/04/11 10:45:18;;;;;;;;;;;;;;;16.26;44.30;92446.03;2058025;69;20070;-75
2023/04/11 10:47:55;;;;;;;;;;;;;;;17.34;44.66;92456.75;2058151;69;20050;-76
2023/04/11 10:50:27;;;;;;;;;;;;;;;16.80;44.00;92445.75;2058003;69;20486;-75
2023/04/11 10:53:00;;;;;;;;;;;;;;;17.82;43.90;92446.16;2058063;69;20116;-76
2023/04/11 10:55:26;;;;;;;;;;;;;;;17.11;44.00;92441.09;2057795;69;20065;-76
2023/04/11 10:58:07;;;;;;;;;;;;;;;16.96;44.12;92422.84;2057971;69;20073;-75
2023/04/11 11:03:18;;;;;;;;;;;;;;;16.46;44.81;92433.91;2058054;69;20112;-75
2023/04/11 11:09:20;;;;;;;;;;;;;;;16.62;43.50;92436.59;2058156;69;20042;-76
2023/04/11 11:12:03;;;;;;;;;;;;;;;16.37;44.12;92441.44;2058019;69;20108;-73
2023/04/11 11:14:29;;;;;;;;;;;;;;;15.15;46.82;92440.41;2054818;69;20506;-76
2023/04/11 11:16:54;;;;;;;;;;;;;;;15.11;45.97;92437.41;2057821;69;20053;-75
2023/04/11 11:19:20;;;;;;;;;;;;;;;14.29;48.88;92446.72;2058085;69;20062;-76
2023/04/11 11:21:45;;;;;;;;;;;;;;;14.31;50.03;92460.97;2058070;69;20062;-76
2023/04/11 11:24:11;;;;;;;;;;;;;;;15.64;47.03;92453.69;2058099;69;20137;-76
2023/04/11 11:26:41;;;;;;;;;;;;;;;14.62;48.13;92460.22;2058071;69;20534;-73
2023/04/11 11:32:35;;;;;;;;;;;;;;;14.61;47.72;92467.94;2058269;69;20112;-72
2023/04/11 11:35:11;;;;;;;;;;;;;;;14.82;47.30;92463.88;2057946;69;20077;-74
2023/04/11 11:37:37;;;;;;;;;;;;;;;15.60;46.91;92458.44;2054778;69;20050;-75
2023/04/11 11:40:08;;;;;;;;;;;;;;;16.04;44.84;92445.22;2058217;69;20486;-76
2023/04/11 11:42:35;;;;;;;;;;;;;;;15.25;46.84;92440.06;2058081;69;20050;-73
2023/04/11 11:45:19;;;;;;;;;;;;;;;16.29;45.20;92426.22;2057878;69;20046;-76
2023/04/11 11:47:45;;;;;;;;;;;;;;;16.63;44.35;92418.91;2058237;69;20141;-77
2023/04/11 11:50:22;;;;;;;;;;;;;;;16.27;43.98;92410.56;2057938;69;20081;-76
2023/04/11 11:52:48;;;;;;;;;;;;;;;17.04;42.69;92417.41;2057959;69;20415;-73
2023/04/11 11:55:21;;;;;;;;;;;;;;;17.44;42.02;92415.13;2058369;69;20061;-73
2023/04/11 11:57:48;;;;;;;;;;;;;;;17.19;42.38;92407.22;2057972;69;20042;-73
2023/04/11 12:00:15;;;;;;;;;;;;;;;16.26;42.71;92392.06;2058149;69;20042;-76
2023/04/11 12:02:43;;;;;;;;;;;;;;;16.18;44.16;92393.91;2058373;69;20058;-75
2023/04/11 12:05:11;;;;;;;;;;;;;;;16.17;43.99;92392.41;2060328;69;20062;-75
2023/04/11 12:07:37;;;;;;;;;;;;;;;16.05;44.87;92384.22;2063699;69;20132;-76
2023/04/11 12:13:31;;;;;;;;;;;;;;;16.28;44.47;92391.41;2058188;69;20093;-75
2023/04/11 12:15:59;;;;;;;;;;;;;;;16.24;45.07;92388.41;2054753;69;20074;-75
2023/04/11 12:18:26;;;;;;;;;;;;;;;15.47;45.33;92394.81;2057997;69;20062;-76
2023/04/11 12:20:52;;;;;;;;;;;;;;;15.01;46.57;92377.47;2057888;69;20499;-74
2023/04/11 12:23:18;;;;;;;;;;;;;;;15.61;46.37;92372.66;2057950;69;20049;-77
2023/04/11 12:25:43;;;;;;;;;;;;;;;15.86;45.14;92374.31;2057875;69;20124;-74
2023/04/11 12:28:09;;;;;;;;;;;;;;;14.94;47.28;92373.69;2058085;69;20517;-76
2023/04/11 12:30:36;;;;;;;;;;;;;;;14.70;46.99;92386.88;2058215;69;20508;-75
2023/04/11 12:33:01;;;;;;;;;;;;;;;15.05;45.56;92385.41;2058419;69;20054;-76
2023/04/11 12:35:27;;;;;;;;;;;;;;;14.30;47.37;92380.97;2058496;69;20061;-76
2023/04/11 12:37:53;;;;;;;;;;;;;;;14.25;47.28;92382.19;2058469;69;20058;-78
2023/04/11 12:40:18;;;;;;;;;;;;;;;14.18;48.75;92383.28;2058588;69;20450;-75
2023/04/11 12:42:44;;;;;;;;;;;;;;;14.54;46.81;92389.06;2058359;69;20232;-76
2023/04/11 12:45:14;;;;;;;;;;;;;;;13.86;46.80;92388.28;2058389;69;20066;-75
2023/04/11 12:47:40;;;;;;;;;;;;;;;13.68;47.48;92383.28;2058306;69;20058;-77
2023/04/11 12:50:06;;;;;;;;;;;;;;;13.42;48.20;92388.50;2058359;69;20209;-75
2023/04/11 12:52:32;;;;;;;;;;;;;;;13.01;48.35;92410.56;2058280;69;20111;-77
2023/04/11 12:54:57;;;;;;;;;;;;;;;12.80;47.73;92423.72;2058419;69;20153;-77
2023/04/11 12:57:23;;;;;;;;;;;;;;;12.60;49.11;92426.31;2058326;69;20461;-76
2023/04/11 13:03:17;;;;;;;;;;;;;;;12.81;48.73;92452.69;2058464;69;20052;-78
2023/04/11 13:05:42;;;;;;;;;;;;;;;13.02;48.60;92488.31;2058340;69;20054;-78
2023/04/11 13:08:08;;;;;;;;;;;;;;;13.09;48.76;92485.13;2055016;69;20142;-81
2023/04/11 13:10:34;;;;;;;;;;;;;;;12.61;50.00;92500.44;2058413;69;20145;-77
2023/04/11 13:12:59;;;;;;;;;;;;;;;12.28;52.59;92507.28;2057963;69;20116;-76
2023/04/11 13:15:25;;;;;;;;;;;;;;;12.69;51.76;92512.13;2058133;69;20501;-77
2023/04/11 13:17:51;;;;;;;;;;;;;;;13.00;50.24;92505.16;2059276;69;20533;-76
2023/04/11 13:20:16;;;;;;;;;;;;;;;13.22;50.52;92515.47;2058777;69;20537;-78
2023/04/11 13:22:42;;;;;;;;;;;;;;;13.02;57.25;92519.41;2058202;69;20049;-77
2023/04/11 13:25:08;;;;;;;;;;;;;;;13.35;57.76;92528.09;2058153;69;20060;-77
2023/04/11 13:31:02;;;;;;;;;;;;;;;14.59;52.34;92518.88;2058281;69;20421;-76
2023/04/11 13:33:27;;;;;;;;;;;;;;;16.09;48.87;92500.06;2058350;69;20494;-77
2023/04/11 13:35:53;;;;;;;;;;;;;;;18.09;45.73;92501.78;2058448;69;20058;-77
2023/04/11 13:38:18;;;;;;;;;;;;;;;18.36;43.04;92499.72;2058238;69;20061;-76
2023/04/11 13:40:44;;;;;;;;;;;;;;;16.47;46.71;92492.19;2058386;69;20057;-77
2023/04/11 13:43:09;;;;;;;;;;;;;;;19.40;42.85;92483.28;2058259;69;20074;-76
2023/04/11 13:45:35;;;;;;;;;;;;;;;19.51;38.98;92489.94;2058101;69;20486;-77
2023/04/11 13:48:01;;;;;;;;;;;;;;;20.67;36.86;92480.44;2058253;69;20060;-78
2023/04/11 13:50:26;;;;;;;;;;;;;;;18.04;40.39;92469.59;2058401;69;20046;-77
2023/04/11 13:52:51;;;;;;;;;;;;;;;15.60;44.19;92466.94;2055076;69;20053;-76
2023/04/11 13:55:17;;;;;;;;;;;;;;;18.06;41.17;92468.97;2058344;69;20133;-79
2023/04/11 14:01:11;;;;;;;;;;;;;;;16.89;43.14;92441.81;2058181;69;20049;-77
2023/04/11 14:03:36;;;;;;;;;;;;;;;17.03;42.98;92450.06;2058180;69;20050;-78
2023/04/11 14:06:02;;;;;;;;;;;;;;;16.81;41.21;92450.06;2058168;69;20474;-78
2023/04/11 14:08:28;;;;;;;;;;;;;;;17.14;41.84;92451.16;2058201;69;20058;-78
2023/04/11 14:10:54;;;;;;;;;;;;;;;16.81;41.92;92455.72;2058221;69;20498;-79